CU-0039 weather

Los Ingleses Airport
Camag├╝ey, Cuba

Public forecast

Using degrees Celsius for public forecast. Weather courtesy of forecast.io.

Closest aviation weather report (METAR) to Los Ingleses Airport

Closest report is Ignacio Agramonte International Airport, 37.8 nm (70.1 km) NNE. Retrieved 2019/12/09 08:50 UTC (1 hour ago):

MUCM 090850Z 07004KT 9000 NSC 19/19 Q1016

Closest aviation forecast (TAF) to Los Ingleses Airport

Closest forecast is Ignacio Agramonte International Airport, 37.8 nm (70.1 km) NNE. Retrieved 2019/12/09 06:06 UTC (4 hours ago):

TAF MUCM 090500Z 0906/1006 VRB03KT 9000 SCT020 BECMG 0915/0917 09010KT BECMG 1001/1003 VRB03KT